createdAt,value
2018-10-17T00:01:42.293Z,96393.38
2018-10-17T00:04:10.786Z,96396.98
2018-10-17T00:06:39.335Z,96395.00
2018-10-17T00:09:09.366Z,96397.49
2018-10-17T00:11:38.230Z,96395.97
2018-10-17T00:14:07.098Z,96397.41
2018-10-17T00:16:35.605Z,96390.16
2018-10-17T00:19:09.601Z,96387.47
2018-10-17T00:21:38.110Z,96388.42
2018-10-17T00:24:06.650Z,96395.77
2018-10-17T00:26:35.248Z,96399.28
2018-10-17T00:29:03.812Z,96401.73
2018-10-17T00:31:32.272Z,96398.95
2018-10-17T00:34:00.778Z,96399.19
2018-10-17T00:36:29.272Z,96397.20
2018-10-17T00:38:57.775Z,96395.67
2018-10-17T00:41:26.323Z,96399.06
2018-10-17T00:43:54.839Z,96403.52
2018-10-17T00:46:23.344Z,96399.79
2018-10-17T00:48:51.906Z,96404.67
2018-10-17T00:51:20.393Z,96404.67
2018-10-17T00:53:48.955Z,96398.73
2018-10-17T00:56:17.490Z,96399.78
2018-10-17T00:58:57.133Z,96402.47
2018-10-17T01:01:25.623Z,96392.66
2018-10-17T01:03:54.147Z,96393.23
2018-10-17T01:06:22.679Z,96401.18
2018-10-17T01:08:51.208Z,96396.75
2018-10-17T01:11:19.765Z,96398.62
2018-10-17T01:13:48.257Z,96397.20
2018-10-17T01:16:16.783Z,96395.59
2018-10-17T01:18:45.286Z,96390.58
2018-10-17T01:21:13.784Z,96386.84
2018-10-17T01:23:43.783Z,96389.64
2018-10-17T01:26:12.361Z,96384.84
2018-10-17T01:28:42.752Z,96385.33
2018-10-17T01:31:11.289Z,96390.20
2018-10-17T01:33:40.823Z,96384.38
2018-10-17T01:36:09.329Z,96383.66
2018-10-17T01:38:37.995Z,96379.47
2018-10-17T01:41:06.561Z,96376.43
2018-10-17T01:43:35.079Z,96378.66
2018-10-17T01:46:03.603Z,96377.58
2018-10-17T01:48:32.110Z,96375.47
2018-10-17T01:51:00.715Z,96374.29
2018-10-17T01:53:29.462Z,96374.63
2018-10-17T01:55:58.039Z,96375.00
2018-10-17T01:58:26.547Z,96373.59
2018-10-17T02:00:55.086Z,96373.23
2018-10-17T02:03:23.610Z,96366.82
2018-10-17T02:05:52.122Z,96368.45
2018-10-17T02:08:20.641Z,96367.75
2018-10-17T02:10:49.195Z,96364.16
2018-10-17T02:13:20.318Z,96364.86
2018-10-17T02:15:50.170Z,96367.77
2018-10-17T02:18:18.928Z,96370.20
2018-10-17T02:20:47.442Z,96365.87
2018-10-17T02:23:15.974Z,96359.48
2018-10-17T02:25:44.525Z,96367.02
2018-10-17T02:28:13.063Z,96364.80
2018-10-17T02:30:41.584Z,96363.97
2018-10-17T02:33:10.098Z,96367.69
2018-10-17T02:35:38.603Z,96365.01
2018-10-17T02:38:07.115Z,96365.24
2018-10-17T02:40:35.634Z,96371.05
2018-10-17T02:43:04.249Z,96367.89
2018-10-17T02:45:32.666Z,96374.21
2018-10-17T02:48:01.160Z,96376.52
2018-10-17T02:50:29.647Z,96368.47
2018-10-17T02:52:58.192Z,96372.10
2018-10-17T02:55:26.725Z,96375.09
2018-10-17T02:57:55.263Z,96374.27
2018-10-17T03:00:23.776Z,96374.39
2018-10-17T03:02:52.284Z,96369.03
2018-10-17T03:05:20.887Z,96373.45
2018-10-17T03:07:49.354Z,96372.31
2018-10-17T03:10:17.855Z,96374.05
2018-10-17T03:12:46.346Z,96367.61
2018-10-17T03:15:14.879Z,96375.78
2018-10-17T03:17:43.414Z,96375.98
2018-10-17T03:20:12.218Z,96374.81
2018-10-17T03:22:40.791Z,96377.34
2018-10-17T03:25:10.266Z,96378.86
2018-10-17T03:27:38.770Z,96375.80
2018-10-17T03:30:07.434Z,96379.98
2018-10-17T03:32:35.929Z,96387.18
2018-10-17T03:35:04.480Z,96392.04
2018-10-17T03:37:32.950Z,96389.33
2018-10-17T03:40:01.585Z,96391.06
2018-10-17T03:42:30.094Z,96391.62
2018-10-17T03:44:58.600Z,96388.39
2018-10-17T03:47:27.075Z,96387.22
2018-10-17T03:49:55.649Z,96393.17
2018-10-17T03:52:24.121Z,96390.05
2018-10-17T03:54:52.640Z,96393.88
2018-10-17T03:57:21.111Z,96395.23
2018-10-17T03:59:49.735Z,96397.08
2018-10-17T04:02:18.989Z,96399.08
2018-10-17T04:04:47.516Z,96396.36
2018-10-17T04:07:16.016Z,96399.86
2018-10-17T04:09:44.525Z,96394.97
2018-10-17T04:12:13.039Z,96398.20
2018-10-17T04:14:41.536Z,96397.52
2018-10-17T04:17:10.186Z,96402.77
2018-10-17T04:19:38.667Z,96399.64
2018-10-17T04:22:07.164Z,96400.53
2018-10-17T04:24:35.668Z,96398.99
2018-10-17T04:27:04.214Z,96399.71
2018-10-17T04:29:32.731Z,96402.98
2018-10-17T04:34:53.837Z,96399.48
2018-10-17T04:37:22.338Z,96391.39
2018-10-17T04:39:51.169Z,96397.12
2018-10-17T04:42:19.651Z,96399.80
2018-10-17T04:44:48.151Z,96398.69
2018-10-17T04:47:16.789Z,96402.87
2018-10-17T04:49:45.179Z,96400.69
2018-10-17T04:52:13.675Z,96402.64
2018-10-17T04:54:42.218Z,96402.87
2018-10-17T04:57:10.726Z,96403.14
2018-10-17T04:59:39.227Z,96404.65
2018-10-17T05:02:07.716Z,96406.38
2018-10-17T05:04:36.289Z,96410.02
2018-10-17T05:07:04.790Z,96413.29
2018-10-17T05:09:33.310Z,96409.30
2018-10-17T05:12:01.796Z,96407.83
2018-10-17T05:14:30.295Z,96415.84
2018-10-17T05:19:51.868Z,96419.19
2018-10-17T05:22:20.390Z,96418.42
2018-10-17T05:24:48.877Z,96424.63
2018-10-17T05:27:17.394Z,96426.26
2018-10-17T05:29:45.992Z,96422.53
2018-10-17T05:32:14.429Z,96425.30
2018-10-17T05:34:42.970Z,96430.70
2018-10-17T05:37:11.592Z,96430.38
2018-10-17T05:39:40.016Z,96432.14
2018-10-17T05:42:08.536Z,96434.37
2018-10-17T05:44:37.144Z,96426.69
2018-10-17T05:47:05.875Z,96432.08
2018-10-17T05:49:34.367Z,96433.92
2018-10-17T05:52:02.946Z,96432.64
2018-10-17T05:54:31.474Z,96435.99
2018-10-17T05:56:59.966Z,96440.20
2018-10-17T05:59:28.825Z,96438.16
2018-10-17T06:01:59.584Z,96440.00
2018-10-17T06:04:28.098Z,96436.16
2018-10-17T06:06:56.633Z,96438.09
2018-10-17T06:09:25.133Z,96434.48
2018-10-17T06:11:53.659Z,96434.87
2018-10-17T06:14:22.148Z,96435.59
2018-10-17T06:16:50.732Z,96435.99
2018-10-17T06:19:19.556Z,96437.25
2018-10-17T06:21:48.059Z,96440.81
2018-10-17T06:24:16.582Z,96440.86
2018-10-17T06:26:45.086Z,96441.59
2018-10-17T06:29:13.641Z,96440.00
2018-10-17T06:31:42.091Z,96438.73
2018-10-17T06:34:10.672Z,96442.08
2018-10-17T06:36:39.120Z,96443.40
2018-10-17T06:39:09.811Z,96442.16
2018-10-17T06:41:38.307Z,96443.86
2018-10-17T06:44:07.376Z,96436.89
2018-10-17T06:46:36.143Z,96438.20
2018-10-17T06:49:04.787Z,96441.36
2018-10-17T06:51:33.254Z,96442.80
2018-10-17T06:54:01.831Z,96440.60
2018-10-17T06:56:30.531Z,96439.95
2018-10-17T06:58:59.089Z,96443.78
2018-10-17T07:01:27.551Z,96445.16
2018-10-17T07:03:56.102Z,96443.04
2018-10-17T07:06:24.619Z,96445.34
2018-10-17T07:08:53.113Z,96440.71
2018-10-17T07:11:21.754Z,96441.74
2018-10-17T07:13:50.183Z,96439.87
2018-10-17T07:16:18.843Z,96442.57
2018-10-17T07:18:47.349Z,96449.70
2018-10-17T07:21:15.842Z,96442.83
2018-10-17T07:23:44.450Z,96446.33
2018-10-17T07:26:12.959Z,96438.86
2018-10-17T07:28:44.578Z,96435.72
2018-10-17T07:31:13.092Z,96438.98
2018-10-17T07:33:43.346Z,96435.44
2018-10-17T07:36:11.911Z,96432.41
2018-10-17T07:38:41.947Z,96438.46
2018-10-17T07:41:10.518Z,96437.62
2018-10-17T07:43:39.212Z,96439.95
2018-10-17T07:46:07.718Z,96441.63
2018-10-17T07:48:36.218Z,96440.68
2018-10-17T07:51:05.100Z,96440.45
2018-10-17T07:53:33.910Z,96439.09
2018-10-17T07:56:02.684Z,96442.03
2018-10-17T07:58:31.210Z,96436.97
2018-10-17T08:00:59.839Z,96433.39
2018-10-17T08:03:28.375Z,96438.44
2018-10-17T08:05:56.914Z,96437.67
2018-10-17T08:08:25.386Z,96430.44
2018-10-17T08:10:53.918Z,96434.56
2018-10-17T08:13:22.429Z,96434.19
2018-10-17T08:15:50.947Z,96431.39
2018-10-17T08:18:19.536Z,96431.89
2018-10-17T08:20:48.021Z,96432.06
2018-10-17T08:23:16.533Z,96422.18
2018-10-17T08:25:45.024Z,96423.83
2018-10-17T08:28:13.517Z,96421.30
2018-10-17T08:30:42.037Z,96426.18
2018-10-17T08:33:10.632Z,96425.33
2018-10-17T08:35:39.285Z,96427.52
2018-10-17T08:38:07.777Z,96429.26
2018-10-17T08:40:36.227Z,96420.71
2018-10-17T08:43:05.375Z,96431.50
2018-10-17T08:45:34.006Z,96425.90
2018-10-17T08:48:02.503Z,96422.20
2018-10-17T08:50:31.066Z,96426.31
2018-10-17T08:52:59.516Z,96423.61
2018-10-17T08:55:28.047Z,96423.94
2018-10-17T08:57:56.669Z,96416.30
2018-10-17T09:00:25.274Z,96417.20
2018-10-17T09:02:53.778Z,96424.95
2018-10-17T09:05:22.292Z,96423.89
2018-10-17T09:07:50.985Z,96415.11
2018-10-17T09:10:19.359Z,96418.87
2018-10-17T09:12:47.875Z,96419.35
2018-10-17T09:15:16.382Z,96419.02
2018-10-17T09:17:44.898Z,96410.94
2018-10-17T09:20:13.747Z,96413.19
2018-10-17T09:22:42.073Z,96408.02
2018-10-17T09:25:10.545Z,96402.00
2018-10-17T09:27:39.062Z,96404.59
2018-10-17T09:30:09.188Z,96404.21
2018-10-17T09:32:37.756Z,96395.39
2018-10-17T09:35:07.174Z,96391.47
2018-10-17T09:37:35.835Z,96387.98
2018-10-17T09:40:04.548Z,96388.37
2018-10-17T09:42:33.073Z,96381.72
2018-10-17T09:45:01.591Z,96384.39
2018-10-17T09:47:30.118Z,96382.32
2018-10-17T09:49:58.692Z,96386.46
2018-10-17T09:52:27.214Z,96377.14
2018-10-17T09:54:55.735Z,96377.19
2018-10-17T09:57:24.251Z,96380.23
2018-10-17T09:59:52.788Z,96373.81
2018-10-17T10:02:22.184Z,96380.23
2018-10-17T10:04:50.732Z,96379.56
2018-10-17T10:07:19.269Z,96370.13
2018-10-17T10:09:47.798Z,96370.00
2018-10-17T10:12:16.402Z,96368.52
2018-10-17T10:14:44.948Z,96366.73
2018-10-17T10:17:13.558Z,96367.40
2018-10-17T10:19:42.047Z,96365.38
2018-10-17T10:22:10.594Z,96360.64
2018-10-17T10:24:39.129Z,96360.11
2018-10-17T10:27:07.622Z,96350.37
2018-10-17T10:29:36.177Z,96347.41
2018-10-17T10:32:04.762Z,96348.63
2018-10-17T10:34:33.302Z,96342.52
2018-10-17T10:37:01.807Z,96338.12
2018-10-17T10:39:30.302Z,96337.09
2018-10-17T10:41:58.882Z,96339.09
2018-10-17T10:44:27.366Z,96342.05
2018-10-17T10:46:55.919Z,96332.53
2018-10-17T10:49:24.446Z,96329.70
2018-10-17T10:51:52.952Z,96327.50
2018-10-17T10:54:21.598Z,96324.20
2018-10-17T10:56:50.840Z,96321.25
2018-10-17T10:59:19.615Z,96323.02
2018-10-17T11:01:48.092Z,96315.86
2018-10-17T11:04:16.622Z,96310.92
2018-10-17T11:06:45.151Z,96315.77
2018-10-17T11:09:13.667Z,96314.11
2018-10-17T11:11:42.160Z,96312.01
2018-10-17T11:14:10.841Z,96309.33
2018-10-17T11:16:39.283Z,96309.74
2018-10-17T11:19:07.817Z,96308.22
2018-10-17T11:21:36.459Z,96311.19
2018-10-17T11:24:05.152Z,96305.52
2018-10-17T11:26:33.682Z,96300.42
2018-10-17T11:29:02.262Z,96294.78
2018-10-17T11:31:30.905Z,96298.66
2018-10-17T11:33:59.367Z,96290.16
2018-10-17T11:36:27.851Z,96245.31
2018-10-17T11:38:56.424Z,96288.95
2018-10-17T11:41:25.015Z,96282.74
2018-10-17T11:43:53.559Z,96285.75
2018-10-17T11:46:22.199Z,96287.22
2018-10-17T11:48:58.255Z,96290.36
2018-10-17T11:51:26.815Z,96285.64
2018-10-17T11:53:55.319Z,96289.08
2018-10-17T11:56:23.822Z,96284.73
2018-10-17T11:58:52.407Z,96283.66
2018-10-17T12:01:20.930Z,96279.77
2018-10-17T12:03:49.642Z,96281.30
2018-10-17T12:06:18.133Z,96291.25
2018-10-17T12:08:46.518Z,96282.52
2018-10-17T12:11:15.213Z,96283.92
2018-10-17T12:13:44.720Z,96278.08
2018-10-17T12:16:13.260Z,96277.97
2018-10-17T12:18:42.985Z,96273.82
2018-10-17T12:21:11.714Z,96274.89
2018-10-17T12:23:41.360Z,96279.05
2018-10-17T12:26:09.896Z,96281.13
2018-10-17T12:28:38.592Z,96282.50
2018-10-17T12:31:07.055Z,96277.11
2018-10-17T12:33:35.627Z,96274.30
2018-10-17T12:36:04.269Z,96274.21
2018-10-17T12:38:32.749Z,96275.28
2018-10-17T12:41:01.402Z,96280.11
2018-10-17T12:43:29.790Z,96280.79
2018-10-17T12:45:58.334Z,96277.88
2018-10-17T12:48:26.841Z,96272.80
2018-10-17T12:50:55.364Z,96269.35
2018-10-17T12:53:23.908Z,96268.78
2018-10-17T12:55:52.423Z,96267.20
2018-10-17T12:58:20.943Z,96265.31
2018-10-17T13:00:49.487Z,96262.47
2018-10-17T13:03:18.035Z,96268.88
2018-10-17T13:05:46.530Z,96268.69
2018-10-17T13:08:15.025Z,96272.38
2018-10-17T13:10:43.546Z,96270.61
2018-10-17T13:13:12.123Z,96267.70
2018-10-17T13:15:40.583Z,96261.72
2018-10-17T13:18:09.091Z,96266.30
2018-10-17T13:20:37.715Z,96268.92
2018-10-17T13:23:06.618Z,96268.92
2018-10-17T13:25:35.106Z,96265.09
2018-10-17T13:28:03.661Z,96265.32
2018-10-17T13:30:32.191Z,96261.59
2018-10-17T13:33:00.737Z,96267.61
2018-10-17T13:35:29.251Z,96263.31
2018-10-17T13:37:57.752Z,96261.98
2018-10-17T13:40:26.258Z,96263.19
2018-10-17T13:42:54.771Z,96261.19
2018-10-17T13:45:23.294Z,96263.80
2018-10-17T13:47:51.814Z,96264.14
2018-10-17T13:50:20.319Z,96256.88
2018-10-17T13:52:48.845Z,96255.00
2018-10-17T13:55:17.376Z,96259.21
2018-10-17T13:57:45.930Z,96257.03
2018-10-17T14:00:14.402Z,96256.92
2018-10-17T14:02:43.767Z,96259.16
2018-10-17T14:05:12.311Z,96257.27
2018-10-17T14:07:40.816Z,96255.44
2018-10-17T14:10:09.349Z,96258.48
2018-10-17T14:12:37.888Z,96257.07
2018-10-17T14:15:06.664Z,96260.07
2018-10-17T14:17:35.147Z,96257.36
2018-10-17T14:20:03.725Z,96265.19
2018-10-17T14:22:32.246Z,96266.45
2018-10-17T14:25:00.762Z,96265.58
2018-10-17T14:27:29.301Z,96267.33
2018-10-17T14:29:57.876Z,96264.52
2018-10-17T14:32:26.383Z,96265.02
2018-10-17T14:34:54.890Z,96268.86
2018-10-17T14:37:23.439Z,96267.98
2018-10-17T14:39:52.003Z,96266.83
2018-10-17T14:42:20.602Z,96270.50
2018-10-17T14:44:49.126Z,96271.91
2018-10-17T14:47:18.193Z,96269.93
2018-10-17T14:49:46.711Z,96271.03
2018-10-17T14:52:15.591Z,96270.72
2018-10-17T14:54:44.192Z,96265.73
2018-10-17T14:57:12.752Z,96269.11
2018-10-17T14:59:41.228Z,96266.70
2018-10-17T15:02:09.742Z,96264.95
2018-10-17T15:04:38.250Z,96271.09
2018-10-17T15:07:06.814Z,96270.48
2018-10-17T15:09:35.323Z,96263.94
2018-10-17T15:12:03.956Z,96264.54
2018-10-17T15:14:32.372Z,96266.55
2018-10-17T15:17:00.961Z,96268.86
2018-10-17T15:19:29.434Z,96273.70
2018-10-17T15:21:58.103Z,96271.72
2018-10-17T15:24:26.645Z,96272.83
2018-10-17T15:26:55.171Z,96276.53
2018-10-17T15:29:23.667Z,96269.78
2018-10-17T15:31:52.266Z,96270.06
2018-10-17T15:34:20.751Z,96273.47
2018-10-17T15:36:49.307Z,96273.44
2018-10-17T15:39:17.883Z,96269.52
2018-10-17T15:41:46.382Z,96279.13
2018-10-17T15:44:14.911Z,96273.20
2018-10-17T15:46:43.419Z,96276.31
2018-10-17T15:49:11.978Z,96276.56
2018-10-17T15:51:40.494Z,96274.16
2018-10-17T15:54:09.074Z,96281.48
2018-10-17T15:56:37.595Z,96278.06
2018-10-17T15:59:06.280Z,96278.70
2018-10-17T16:01:34.793Z,96277.55
2018-10-17T16:04:03.335Z,96275.31
2018-10-17T16:06:31.839Z,96283.62
2018-10-17T16:09:00.367Z,96284.46
2018-10-17T16:11:28.939Z,96282.84
2018-10-17T16:13:57.876Z,96289.82
2018-10-17T16:16:26.424Z,96288.40
2018-10-17T16:18:54.942Z,96291.30
2018-10-17T16:21:23.503Z,96292.62
2018-10-17T16:23:52.076Z,96293.09
2018-10-17T16:29:13.266Z,96297.67
2018-10-17T16:31:41.753Z,96304.97
2018-10-17T16:34:10.266Z,96298.11
2018-10-17T16:36:38.764Z,96298.58
2018-10-17T16:39:10.034Z,96301.14
2018-10-17T16:41:38.535Z,96304.25
2018-10-17T16:44:07.300Z,96303.89
2018-10-17T16:46:36.107Z,96306.84
2018-10-17T16:49:04.683Z,96307.11
2018-10-17T16:51:33.283Z,96306.63
2018-10-17T16:54:01.863Z,96311.77
2018-10-17T16:56:30.331Z,96308.80
2018-10-17T16:58:58.925Z,96305.37
2018-10-17T17:01:27.442Z,96314.29
2018-10-17T17:03:55.970Z,96307.77
2018-10-17T17:06:24.455Z,96305.40
2018-10-17T17:08:53.010Z,96311.59
2018-10-17T17:11:21.486Z,96311.18
2018-10-17T17:13:49.986Z,96313.39
2018-10-17T17:16:18.585Z,96315.16
2018-10-17T17:18:47.079Z,96311.70
2018-10-17T17:21:15.772Z,96319.31
2018-10-17T17:23:45.242Z,96315.55
2018-10-17T17:26:13.764Z,96317.11
2018-10-17T17:28:43.138Z,96314.83
2018-10-17T17:31:11.644Z,96315.48
2018-10-17T17:33:41.222Z,96314.70
2018-10-17T17:36:09.754Z,96316.87
2018-10-17T17:38:38.363Z,96313.72
2018-10-17T17:41:06.983Z,96318.48
2018-10-17T17:43:35.523Z,96313.06
2018-10-17T17:46:04.070Z,96317.27
2018-10-17T17:48:32.547Z,96318.76
2018-10-17T17:51:01.078Z,96319.37
2018-10-17T17:53:29.584Z,96310.72
2018-10-17T17:55:58.079Z,96314.31
2018-10-17T17:58:27.035Z,96310.27
2018-10-17T18:00:55.518Z,96316.31
2018-10-17T18:03:24.877Z,96323.42
2018-10-17T18:05:53.374Z,96316.69
2018-10-17T18:08:21.911Z,96317.97
2018-10-17T18:10:50.428Z,96318.00
2018-10-17T18:13:19.154Z,96320.55
2018-10-17T18:15:47.679Z,96316.30
2018-10-17T18:18:16.929Z,96313.65
2018-10-17T18:20:45.456Z,96319.26
2018-10-17T18:23:13.974Z,96325.95
2018-10-17T18:25:42.774Z,96321.69
2018-10-17T18:28:11.442Z,96320.99
2018-10-17T18:30:39.870Z,96324.64
2018-10-17T18:33:08.434Z,96327.78
2018-10-17T18:35:36.951Z,96326.73
2018-10-17T18:38:05.721Z,96324.98
2018-10-17T18:40:37.357Z,96324.07
2018-10-17T18:43:05.903Z,96327.66
2018-10-17T18:45:34.467Z,96324.36
2018-10-17T18:48:03.007Z,96329.53
2018-10-17T18:50:31.531Z,96324.12
2018-10-17T18:53:00.036Z,96322.83
2018-10-17T18:55:28.752Z,96329.05
2018-10-17T18:57:57.243Z,96325.32
2018-10-17T19:00:25.738Z,96329.84
2018-10-17T19:02:54.242Z,96328.84
2018-10-17T19:05:22.758Z,96326.05
2018-10-17T19:07:51.291Z,96332.22
2018-10-17T19:10:19.955Z,96331.36
2018-10-17T19:12:48.450Z,96330.22
2018-10-17T19:15:17.028Z,96338.78
2018-10-17T19:17:45.513Z,96336.89
2018-10-17T19:20:14.036Z,96338.97
2018-10-17T19:22:42.574Z,96332.41
2018-10-17T19:25:11.731Z,96332.38
2018-10-17T19:27:40.258Z,96342.22
2018-10-17T19:30:09.824Z,96332.84
2018-10-17T19:32:38.350Z,96335.89
2018-10-17T19:35:07.279Z,96341.26
2018-10-17T19:37:35.763Z,96343.73
2018-10-17T19:40:04.402Z,96341.00
2018-10-17T19:42:32.922Z,96340.05
2018-10-17T19:45:02.606Z,96334.27
2018-10-17T19:47:31.097Z,96333.45
2018-10-17T19:49:59.611Z,96332.16
2018-10-17T19:52:28.123Z,96336.24
2018-10-17T19:54:56.658Z,96336.88
2018-10-17T19:57:25.167Z,96335.25
2018-10-17T19:59:53.693Z,96332.81
2018-10-17T20:02:22.974Z,96340.91
2018-10-17T20:04:51.484Z,96333.97
2018-10-17T20:07:20.123Z,96336.22
2018-10-17T20:09:48.627Z,96332.69
2018-10-17T20:12:17.143Z,96334.72
2018-10-17T20:14:45.675Z,96337.38
2018-10-17T20:17:14.177Z,96337.22
2018-10-17T20:19:42.687Z,96338.52
2018-10-17T20:22:12.231Z,96331.25
2018-10-17T20:24:41.234Z,96338.31
2018-10-17T20:27:10.189Z,96332.23
2018-10-17T20:29:38.957Z,96334.66
2018-10-17T20:32:08.022Z,96339.25
2018-10-17T20:34:36.555Z,96337.84
2018-10-17T20:37:05.182Z,96343.46
2018-10-17T20:39:33.847Z,96337.02
2018-10-17T20:42:02.473Z,96340.80
2018-10-17T20:44:30.967Z,96341.48
2018-10-17T20:46:59.488Z,96342.09
2018-10-17T20:49:28.054Z,96339.59
2018-10-17T20:51:56.550Z,96337.70
2018-10-17T20:54:25.090Z,96337.16
2018-10-17T20:56:53.604Z,96338.72
2018-10-17T20:59:22.111Z,96337.44
2018-10-17T21:01:50.770Z,96338.30
2018-10-17T21:04:19.251Z,96339.99
2018-10-17T21:06:47.777Z,96334.38
2018-10-17T21:09:16.315Z,96335.20
2018-10-17T21:11:44.813Z,96333.00
2018-10-17T21:14:15.443Z,96330.42
2018-10-17T21:16:43.939Z,96333.27
2018-10-17T21:19:12.435Z,96331.31
2018-10-17T21:21:40.959Z,96330.38
2018-10-17T21:24:09.478Z,96326.84
2018-10-17T21:26:38.003Z,96330.91
2018-10-17T21:29:06.834Z,96324.88
2018-10-17T21:31:35.324Z,96324.59
2018-10-17T21:34:03.886Z,96325.02
2018-10-17T21:36:32.392Z,96322.64
2018-10-17T21:39:00.900Z,96318.88
2018-10-17T21:41:29.404Z,96317.20
2018-10-17T21:43:57.962Z,96318.16
2018-10-17T21:46:26.466Z,96310.99
2018-10-17T21:48:54.954Z,96308.28
2018-10-17T21:51:23.466Z,96316.62
2018-10-17T21:53:51.994Z,96307.88
2018-10-17T21:56:20.511Z,96312.91
2018-10-17T21:58:49.019Z,96315.95
2018-10-17T22:01:17.536Z,96314.30
2018-10-17T22:03:46.038Z,96314.16
2018-10-17T22:06:14.538Z,96310.20
2018-10-17T22:08:43.920Z,96310.61
2018-10-17T22:11:12.416Z,96310.52
2018-10-17T22:13:41.721Z,96310.05
2018-10-17T22:16:10.246Z,96313.41
2018-10-17T22:18:38.868Z,96310.70
2018-10-17T22:21:07.672Z,96308.96
2018-10-17T22:23:36.176Z,96307.91
2018-10-17T22:26:04.716Z,96307.17
2018-10-17T22:28:33.221Z,96310.84
2018-10-17T22:31:01.769Z,96305.96
2018-10-17T22:33:30.269Z,96311.73
2018-10-17T22:35:58.774Z,96303.64
2018-10-17T22:38:27.317Z,96307.50
2018-10-17T22:40:55.856Z,96303.02
2018-10-17T22:43:24.343Z,96310.84
2018-10-17T22:45:52.834Z,96314.36
2018-10-17T22:48:21.335Z,96310.41
2018-10-17T22:50:49.840Z,96312.25
2018-10-17T22:53:18.343Z,96311.09
2018-10-17T22:55:46.843Z,96308.79
2018-10-17T22:58:27.135Z,96301.12
2018-10-17T23:00:55.632Z,96307.84
2018-10-17T23:03:24.155Z,96313.22
2018-10-17T23:05:52.654Z,96308.27
2018-10-17T23:08:21.155Z,96305.25
2018-10-17T23:10:49.710Z,96307.25
2018-10-17T23:13:18.242Z,96302.49
2018-10-17T23:15:46.758Z,96297.47
2018-10-17T23:18:15.266Z,96301.34
2018-10-17T23:20:43.754Z,96298.06
2018-10-17T23:23:12.243Z,96301.09
2018-10-17T23:25:40.763Z,96298.33
2018-10-17T23:28:09.262Z,96295.19
2018-10-17T23:30:37.778Z,96299.61
2018-10-17T23:33:06.280Z,96296.44
2018-10-17T23:35:34.786Z,96293.38
2018-10-17T23:38:03.348Z,96293.95
2018-10-17T23:40:31.882Z,96293.25
2018-10-17T23:43:00.382Z,96291.25
2018-10-17T23:45:28.887Z,96292.02
2018-10-17T23:47:57.430Z,96295.31
2018-10-17T23:50:25.983Z,96290.39
2018-10-17T23:52:54.482Z,96290.95
2018-10-17T23:55:22.981Z,96289.66
2018-10-17T23:57:51.494Z,96283.59
